Morro Bay, CA

4:01 PM PST on February 06, 2016 (GMT -0800)
Del Mar - North Morro Bay | | Change Station
CLOSE
Current Station
Personal Weather Station
Location: Morro Bay, CA
Elevation: 105 ft
Nearby Weather Stations

Elev 105 ft 35.39 °N, 120.85 °W | Updated 8 minutes ago

Clear
Clear
74.5 °F
Feels Like 77 °F
N
2.2
Wind Variable Wind from WSW

Today
High -- | Low -- °F
--% Chance of Precip.
Yesterday
High -- | Low -- °F
Precip. -- in
Pressure 30.19 in
Visibility 10.0 miles
Clouds Clear
Heat Index 77 °F
Dew Point 38 °F
Humidity 27%
Rainfall 0.00 in
Snow Depth Not available.
6:59 AM 5:36 PM
Waning Crescent, 3% visible
METAR KSBP 062356Z 00000KT 10SM CLR 25/02 A3019 RMK AO2 SLP223 T02500017 10261 20194 56018
Pressure 30.19 in
Visibility 10.0 miles
Clouds Clear
Heat Index 77 °F
Dew Point 38 °F
Humidity 27%
Rainfall 0.00 in
Snow Depth Not available.
6:59 AM 5:36 PM
Waning Crescent, 3% visible
METAR KSBP 062356Z 00000KT 10SM CLR 25/02 A3019 RMK AO2 SLP223 T02500017 10261 20194 56018

10-Day Weather Forecast

Almanac

Astronomy

Feb. 06, 2016 Rise Set
Actual Time
Civil Twilight
Nautical Twilight
Astronomical Twilight
Moon
Length of Visible Light
Length of Day
Tomorrow will be .
, % of the Moon is Illuminated

Today's Extremes

State Highs State Lows

Community

WunderPhotos

Upload Photos

1,891,105 photos uploaded!

WunderBlog® & News

Nearby

Air Quality

  Air Quality AQ Index Pollutant
Not available.

Snow Depth

Station Depth Elevation

Earthquake Activity

City Distance Mag. Time & Date
Minimum magnitude displayed is 2.5.

Coastal Water Temperatures

Place Temperature

Stations

Nearby Weather Stations

Station Location Temp. Windchill Dew Point Humidity Wind Precip. Elev Updated Type
                   

Watches & Warnings

There are currently no watches in effect.